Sterling/Rock Falls, Illinois
Current Conditions -  °F | °C
As of 2:55 PM on Thursday 20 Nov 2014 (Local Time) from KSQI Reporting Station
Clear Clear  
Wind Chill: 15°   Ceiling: Unl
Heat Index: 28°   Visibility: 10mi
Dew Point:   Wind: 20mph
Humidity: 40%   Direction: 290°WNW
Pressure: 30.15"   Gusts: 28mph
Location:  41.73°N, 89.68°W
Report Text: KSQI 202055Z 29017G24KT 10SM CLR M02/M14 A3015 RMK AO1 52007
Loading
Personal Weather Stations






























Interactive Weather Map New forecast layout! Learn more

10-Day Weather Forecast

Advertisements
Track Severe Weather on mobile